sensor_id;sensor_type;location;lat;lon;timestamp;temperature;humidity
3492;DHT22;1760;52.480;13.422;2023-06-22T00:03:22;22.50;99.90
3492;DHT22;1760;52.480;13.422;2023-06-22T00:05:50;22.60;99.90
3492;DHT22;1760;52.480;13.422;2023-06-22T00:08:18;22.50;99.90
3492;DHT22;1760;52.480;13.422;2023-06-22T00:10:47;22.60;99.90
3492;DHT22;1760;52.480;13.422;2023-06-22T00:15:44;22.50;99.90
3492;DHT22;1760;52.480;13.422;2023-06-22T00:20:39;22.20;99.90
3492;DHT22;1760;52.480;13.422;2023-06-22T00:23:06;22.30;99.90
3492;DHT22;1760;52.480;13.422;2023-06-22T00:25:34;22.20;99.90
3492;DHT22;1760;52.480;13.422;2023-06-22T00:28:03;22.30;99.90
3492;DHT22;1760;52.480;13.422;2023-06-22T00:30:30;22.20;99.90
3492;DHT22;1760;52.480;13.422;2023-06-22T00:32:58;22.00;99.90
3492;DHT22;1760;52.480;13.422;2023-06-22T00:35:25;22.40;99.90
3492;DHT22;1760;52.480;13.422;2023-06-22T00:42:54;21.80;99.90
3492;DHT22;1760;52.480;13.422;2023-06-22T00:45:23;22.10;99.90
3492;DHT22;1760;52.480;13.422;2023-06-22T00:47:50;22.00;99.90
3492;DHT22;1760;52.480;13.422;2023-06-22T00:50:19;22.00;99.90
3492;DHT22;1760;52.480;13.422;2023-06-22T00:52:49;21.90;99.90
3492;DHT22;1760;52.480;13.422;2023-06-22T00:55:18;22.10;99.90
3492;DHT22;1760;52.480;13.422;2023-06-22T00:57:45;21.90;99.90
3492;DHT22;1760;52.480;13.422;2023-06-22T01:00:13;22.00;99.90
3492;DHT22;1760;52.480;13.422;2023-06-22T01:02:43;22.00;99.90
3492;DHT22;1760;52.480;13.422;2023-06-22T01:05:12;21.70;99.90
3492;DHT22;1760;52.480;13.422;2023-06-22T01:07:44;22.00;99.90
3492;DHT22;1760;52.480;13.422;2023-06-22T01:10:19;21.80;99.90
3492;DHT22;1760;52.480;13.422;2023-06-22T01:12:55;22.40;99.90
3492;DHT22;1760;52.480;13.422;2023-06-22T01:15:30;21.80;99.90
3492;DHT22;1760;52.480;13.422;2023-06-22T01:18:00;21.90;99.90
3492;DHT22;1760;52.480;13.422;2023-06-22T01:20:31;22.10;99.90
3492;DHT22;1760;52.480;13.422;2023-06-22T01:23:07;21.90;99.90
3492;DHT22;1760;52.480;13.422;2023-06-22T01:25:43;21.70;99.90
3492;DHT22;1760;52.480;13.422;2023-06-22T01:30:55;21.80;99.90
3492;DHT22;1760;52.480;13.422;2023-06-22T01:33:33;21.70;99.90
3492;DHT22;1760;52.480;13.422;2023-06-22T01:36:00;21.90;99.90
3492;DHT22;1760;52.480;13.422;2023-06-22T01:38:29;21.30;99.90
3492;DHT22;1760;52.480;13.422;2023-06-22T01:40:57;21.70;99.90
3492;DHT22;1760;52.480;13.422;2023-06-22T01:43:26;21.40;99.90
3492;DHT22;1760;52.480;13.422;2023-06-22T01:45:55;22.30;99.90
3492;DHT22;1760;52.480;13.422;2023-06-22T01:48:23;21.80;99.90
3492;DHT22;1760;52.480;13.422;2023-06-22T01:50:53;22.10;99.90
3492;DHT22;1760;52.480;13.422;2023-06-22T01:55:48;21.60;99.90
3492;DHT22;1760;52.480;13.422;2023-06-22T01:58:16;21.70;99.90
3492;DHT22;1760;52.480;13.422;2023-06-22T02:00:46;21.60;99.90
3492;DHT22;1760;52.480;13.422;2023-06-22T02:03:18;21.90;99.90
3492;DHT22;1760;52.480;13.422;2023-06-22T02:05:49;21.80;99.90
3492;DHT22;1760;52.480;13.422;2023-06-22T02:08:20;21.70;99.90
3492;DHT22;1760;52.480;13.422;2023-06-22T02:10:48;21.80;99.90
3492;DHT22;1760;52.480;13.422;2023-06-22T02:18:10;21.10;99.90
3492;DHT22;1760;52.480;13.422;2023-06-22T02:20:39;21.90;99.90
3492;DHT22;1760;52.480;13.422;2023-06-22T02:23:07;21.70;99.90
3492;DHT22;1760;52.480;13.422;2023-06-22T02:25:34;21.80;99.90
3492;DHT22;1760;52.480;13.422;2023-06-22T02:28:02;21.70;99.90
3492;DHT22;1760;52.480;13.422;2023-06-22T02:30:29;21.70;99.90
3492;DHT22;1760;52.480;13.422;2023-06-22T02:35:25;21.70;99.90
3492;DHT22;1760;52.480;13.422;2023-06-22T02:37:53;21.80;99.90
3492;DHT22;1760;52.480;13.422;2023-06-22T02:40:20;21.40;99.90
3492;DHT22;1760;52.480;13.422;2023-06-22T02:42:50;21.60;99.90
3492;DHT22;1760;52.480;13.422;2023-06-22T02:45:17;21.60;99.90
3492;DHT22;1760;52.480;13.422;2023-06-22T02:47:45;21.50;99.90
3492;DHT22;1760;52.480;13.422;2023-06-22T02:50:13;21.60;99.90
3492;DHT22;1760;52.480;13.422;2023-06-22T02:52:40;21.60;99.90
3492;DHT22;1760;52.480;13.422;2023-06-22T02:55:09;21.60;99.90
3492;DHT22;1760;52.480;13.422;2023-06-22T03:00:04;21.80;99.90
3492;DHT22;1760;52.480;13.422;2023-06-22T03:02:42;21.60;99.90
3492;DHT22;1760;52.480;13.422;2023-06-22T03:07:42;21.70;99.90
3492;DHT22;1760;52.480;13.422;2023-06-22T03:10:11;22.10;99.90
3492;DHT22;1760;52.480;13.422;2023-06-22T03:15:07;21.80;99.90
3492;DHT22;1760;52.480;13.422;2023-06-22T03:17:35;21.90;99.90
3492;DHT22;1760;52.480;13.422;2023-06-22T03:20:03;22.00;99.90
3492;DHT22;1760;52.480;13.422;2023-06-22T03:22:34;21.70;99.90
3492;DHT22;1760;52.480;13.422;2023-06-22T03:25:01;21.60;99.90
3492;DHT22;1760;52.480;13.422;2023-06-22T03:27:29;22.10;99.90
3492;DHT22;1760;52.480;13.422;2023-06-22T03:29:57;21.60;99.90
3492;DHT22;1760;52.480;13.422;2023-06-22T03:37:24;21.60;99.90
3492;DHT22;1760;52.480;13.422;2023-06-22T03:39:51;21.60;99.90
3492;DHT22;1760;52.480;13.422;2023-06-22T03:42:21;21.50;99.90
3492;DHT22;1760;52.480;13.422;2023-06-22T03:44:49;21.70;99.90
3492;DHT22;1760;52.480;13.422;2023-06-22T03:49:43;21.70;99.90
3492;DHT22;1760;52.480;13.422;2023-06-22T03:52:10;21.50;99.90
3492;DHT22;1760;52.480;13.422;2023-06-22T03:57:04;21.60;99.90
3492;DHT22;1760;52.480;13.422;2023-06-22T04:02:00;21.40;99.90
3492;DHT22;1760;52.480;13.422;2023-06-22T04:04:27;21.40;99.90
3492;DHT22;1760;52.480;13.422;2023-06-22T04:14:16;21.50;99.90
3492;DHT22;1760;52.480;13.422;2023-06-22T04:16:42;21.30;99.90
3492;DHT22;1760;52.480;13.422;2023-06-22T04:19:11;21.40;99.90
3492;DHT22;1760;52.480;13.422;2023-06-22T04:21:42;21.60;99.90
3492;DHT22;1760;52.480;13.422;2023-06-22T04:24:08;21.50;99.90
3492;DHT22;1760;52.480;13.422;2023-06-22T04:26:35;21.50;99.90
3492;DHT22;1760;52.480;13.422;2023-06-22T04:29:03;21.30;99.90
3492;DHT22;1760;52.480;13.422;2023-06-22T04:31:31;21.60;99.90
3492;DHT22;1760;52.480;13.422;2023-06-22T04:34:03;21.50;99.90
3492;DHT22;1760;52.480;13.422;2023-06-22T04:36:34;21.60;99.90
3492;DHT22;1760;52.480;13.422;2023-06-22T04:39:07;21.60;99.90
3492;DHT22;1760;52.480;13.422;2023-06-22T04:44:08;21.30;99.90
3492;DHT22;1760;52.480;13.422;2023-06-22T04:46:36;21.80;99.90
3492;DHT22;1760;52.480;13.422;2023-06-22T04:49:05;21.90;99.90
3492;DHT22;1760;52.480;13.422;2023-06-22T04:51:37;21.80;99.90
3492;DHT22;1760;52.480;13.422;2023-06-22T04:54:05;22.10;99.90
3492;DHT22;1760;52.480;13.422;2023-06-22T04:59:00;22.20;99.90
3492;DHT22;1760;52.480;13.422;2023-06-22T05:03:59;22.30;99.90
3492;DHT22;1760;52.480;13.422;2023-06-22T05:06:28;22.80;99.90
3492;DHT22;1760;52.480;13.422;2023-06-22T05:08:57;22.60;99.90
3492;DHT22;1760;52.480;13.422;2023-06-22T05:11:25;22.40;99.90
3492;DHT22;1760;52.480;13.422;2023-06-22T05:16:20;22.70;99.90
3492;DHT22;1760;52.480;13.422;2023-06-22T05:18:53;22.90;99.90
3492;DHT22;1760;52.480;13.422;2023-06-22T05:21:24;22.50;99.90
3492;DHT22;1760;52.480;13.422;2023-06-22T05:26:20;22.80;99.90
3492;DHT22;1760;52.480;13.422;2023-06-22T05:33:45;23.00;99.90
3492;DHT22;1760;52.480;13.422;2023-06-22T05:36:13;23.00;99.90
3492;DHT22;1760;52.480;13.422;2023-06-22T05:38:41;22.80;99.90
3492;DHT22;1760;52.480;13.422;2023-06-22T05:43:37;23.30;99.90
3492;DHT22;1760;52.480;13.422;2023-06-22T05:46:04;23.50;99.90
3492;DHT22;1760;52.480;13.422;2023-06-22T05:55:55;23.70;99.90
3492;DHT22;1760;52.480;13.422;2023-06-22T05:58:22;23.30;99.90
3492;DHT22;1760;52.480;13.422;2023-06-22T06:00:50;23.60;99.90
3492;DHT22;1760;52.480;13.422;2023-06-22T06:03:17;23.90;99.90
3492;DHT22;1760;52.480;13.422;2023-06-22T06:10:39;23.90;99.90
3492;DHT22;1760;52.480;13.422;2023-06-22T06:13:07;23.70;99.90
3492;DHT22;1760;52.480;13.422;2023-06-22T06:15:34;23.40;99.90
3492;DHT22;1760;52.480;13.422;2023-06-22T06:18:03;23.70;99.90
3492;DHT22;1760;52.480;13.422;2023-06-22T06:20:31;23.60;99.90
3492;DHT22;1760;52.480;13.422;2023-06-22T06:22:58;23.90;99.90
3492;DHT22;1760;52.480;13.422;2023-06-22T06:25:25;23.90;99.90
3492;DHT22;1760;52.480;13.422;2023-06-22T06:27:52;24.30;99.90
3492;DHT22;1760;52.480;13.422;2023-06-22T06:30:20;24.00;99.90
3492;DHT22;1760;52.480;13.422;2023-06-22T06:32:47;24.40;99.90
3492;DHT22;1760;52.480;13.422;2023-06-22T06:35:16;24.20;99.90
3492;DHT22;1760;52.480;13.422;2023-06-22T06:37:44;24.50;99.90
3492;DHT22;1760;52.480;13.422;2023-06-22T06:40:13;24.40;99.90
3492;DHT22;1760;52.480;13.422;2023-06-22T06:42:41;24.60;99.90
3492;DHT22;1760;52.480;13.422;2023-06-22T06:45:10;24.70;99.90
3492;DHT22;1760;52.480;13.422;2023-06-22T06:47:38;24.70;99.90
3492;DHT22;1760;52.480;13.422;2023-06-22T06:50:06;24.90;99.90
3492;DHT22;1760;52.480;13.422;2023-06-22T06:52:35;25.30;99.90
3492;DHT22;1760;52.480;13.422;2023-06-22T06:59:58;25.80;99.90
3492;DHT22;1760;52.480;13.422;2023-06-22T07:02:25;25.80;99.90
3492;DHT22;1760;52.480;13.422;2023-06-22T07:04:53;25.60;99.90
3492;DHT22;1760;52.480;13.422;2023-06-22T07:07:21;25.90;99.90
3492;DHT22;1760;52.480;13.422;2023-06-22T07:09:50;26.10;99.90
3492;DHT22;1760;52.480;13.422;2023-06-22T07:17:11;26.40;99.90
3492;DHT22;1760;52.480;13.422;2023-06-22T07:19:38;27.20;99.90
3492;DHT22;1760;52.480;13.422;2023-06-22T07:22:07;28.50;99.90
3492;DHT22;1760;52.480;13.422;2023-06-22T07:27:04;30.90;99.90
3492;DHT22;1760;52.480;13.422;2023-06-22T07:31:59;32.60;99.90
3492;DHT22;1760;52.480;13.422;2023-06-22T07:36:57;32.40;99.90
3492;DHT22;1760;52.480;13.422;2023-06-22T07:41:52;32.00;99.90
3492;DHT22;1760;52.480;13.422;2023-06-22T07:44:20;31.70;99.40
3492;DHT22;1760;52.480;13.422;2023-06-22T07:49:14;30.60;99.90
3492;DHT22;1760;52.480;13.422;2023-06-22T08:01:32;29.80;85.10
3492;DHT22;1760;52.480;13.422;2023-06-22T08:04:00;29.40;99.90
3492;DHT22;1760;52.480;13.422;2023-06-22T08:11:22;28.50;99.90
3492;DHT22;1760;52.480;13.422;2023-06-22T08:13:51;28.50;99.90
3492;DHT22;1760;52.480;13.422;2023-06-22T08:18:47;28.20;90.70
3492;DHT22;1760;52.480;13.422;2023-06-22T08:21:14;27.80;99.90
3492;DHT22;1760;52.480;13.422;2023-06-22T08:23:41;27.80;99.90
3492;DHT22;1760;52.480;13.422;2023-06-22T08:26:08;28.60;99.90
3492;DHT22;1760;52.480;13.422;2023-06-22T08:28:36;28.10;99.90
3492;DHT22;1760;52.480;13.422;2023-06-22T08:31:03;27.80;99.90
3492;DHT22;1760;52.480;13.422;2023-06-22T08:33:30;28.00;99.90
3492;DHT22;1760;52.480;13.422;2023-06-22T08:35:59;28.00;99.90
3492;DHT22;1760;52.480;13.422;2023-06-22T08:38:26;27.80;99.90
3492;DHT22;1760;52.480;13.422;2023-06-22T08:40:53;28.20;99.90
3492;DHT22;1760;52.480;13.422;2023-06-22T08:43:20;28.00;99.90
3492;DHT22;1760;52.480;13.422;2023-06-22T08:45:47;28.10;99.90
3492;DHT22;1760;52.480;13.422;2023-06-22T08:48:14;28.20;99.90
3492;DHT22;1760;52.480;13.422;2023-06-22T08:55:39;28.80;99.90
3492;DHT22;1760;52.480;13.422;2023-06-22T08:58:06;29.10;99.90
3492;DHT22;1760;52.480;13.422;2023-06-22T09:05:29;30.50;99.90
3492;DHT22;1760;52.480;13.422;2023-06-22T09:07:56;30.60;99.90
3492;DHT22;1760;52.480;13.422;2023-06-22T09:10:26;31.00;83.20
3492;DHT22;1760;52.480;13.422;2023-06-22T09:12:53;31.30;99.90
3492;DHT22;1760;52.480;13.422;2023-06-22T09:15:20;31.10;99.30
3492;DHT22;1760;52.480;13.422;2023-06-22T09:17:47;31.30;99.90
3492;DHT22;1760;52.480;13.422;2023-06-22T09:20:14;31.00;99.70
3492;DHT22;1760;52.480;13.422;2023-06-22T09:22:42;31.60;99.90
3492;DHT22;1760;52.480;13.422;2023-06-22T09:25:09;31.40;74.30
3492;DHT22;1760;52.480;13.422;2023-06-22T09:27:38;31.20;95.10
3492;DHT22;1760;52.480;13.422;2023-06-22T09:30:06;31.90;99.90
3492;DHT22;1760;52.480;13.422;2023-06-22T09:35:03;31.50;95.80
3492;DHT22;1760;52.480;13.422;2023-06-22T09:37:32;31.70;97.40
3492;DHT22;1760;52.480;13.422;2023-06-22T09:39:58;31.50;94.30
3492;DHT22;1760;52.480;13.422;2023-06-22T09:42:25;31.00;98.10
3492;DHT22;1760;52.480;13.422;2023-06-22T09:44:54;30.90;95.10
3492;DHT22;1760;52.480;13.422;2023-06-22T09:52:16;30.70;97.00
3492;DHT22;1760;52.480;13.422;2023-06-22T09:54:43;30.40;97.80
3492;DHT22;1760;52.480;13.422;2023-06-22T10:02:07;31.10;95.00
3492;DHT22;1760;52.480;13.422;2023-06-22T10:04:36;31.20;98.20
3492;DHT22;1760;52.480;13.422;2023-06-22T10:07:03;31.10;78.00
3492;DHT22;1760;52.480;13.422;2023-06-22T10:09:33;31.30;69.50
3492;DHT22;1760;52.480;13.422;2023-06-22T10:19:24;32.10;94.50
3492;DHT22;1760;52.480;13.422;2023-06-22T10:21:50;32.30;94.90
3492;DHT22;1760;52.480;13.422;2023-06-22T10:29:12;33.30;82.20
3492;DHT22;1760;52.480;13.422;2023-06-22T10:34:07;33.40;91.50
3492;DHT22;1760;52.480;13.422;2023-06-22T10:39:06;33.50;90.40
3492;DHT22;1760;52.480;13.422;2023-06-22T10:46:27;33.10;95.30
3492;DHT22;1760;52.480;13.422;2023-06-22T10:48:54;33.30;91.50
3492;DHT22;1760;52.480;13.422;2023-06-22T10:51:24;33.30;90.80
3492;DHT22;1760;52.480;13.422;2023-06-22T10:53:52;33.10;63.00
3492;DHT22;1760;52.480;13.422;2023-06-22T10:56:19;33.00;96.30
3492;DHT22;1760;52.480;13.422;2023-06-22T10:58:46;32.80;95.50
3492;DHT22;1760;52.480;13.422;2023-06-22T11:01:13;33.00;93.10
3492;DHT22;1760;52.480;13.422;2023-06-22T11:06:07;33.10;95.80
3492;DHT22;1760;52.480;13.422;2023-06-22T11:11:02;33.30;61.80
3492;DHT22;1760;52.480;13.422;2023-06-22T11:13:29;32.60;91.70
3492;DHT22;1760;52.480;13.422;2023-06-22T11:15:56;32.20;91.70
3492;DHT22;1760;52.480;13.422;2023-06-22T11:20:53;32.00;90.90
3492;DHT22;1760;52.480;13.422;2023-06-22T11:23:20;32.40;91.10
3492;DHT22;1760;52.480;13.422;2023-06-22T11:28:16;32.40;91.00
3492;DHT22;1760;52.480;13.422;2023-06-22T11:38:04;32.70;93.30
3492;DHT22;1760;52.480;13.422;2023-06-22T11:45:27;32.50;94.50
3492;DHT22;1760;52.480;13.422;2023-06-22T11:50:21;32.40;94.70
3492;DHT22;1760;52.480;13.422;2023-06-22T11:55:16;32.50;91.60
3492;DHT22;1760;52.480;13.422;2023-06-22T11:57:53;32.40;95.00
3492;DHT22;1760;52.480;13.422;2023-06-22T12:02:51;32.00;94.30
3492;DHT22;1760;52.480;13.422;2023-06-22T12:05:19;32.50;60.60
3492;DHT22;1760;52.480;13.422;2023-06-22T12:07:47;32.50;94.00
3492;DHT22;1760;52.480;13.422;2023-06-22T12:10:14;32.70;89.80
3492;DHT22;1760;52.480;13.422;2023-06-22T12:12:41;32.60;94.50
3492;DHT22;1760;52.480;13.422;2023-06-22T12:15:09;32.50;60.80
3492;DHT22;1760;52.480;13.422;2023-06-22T12:20:07;32.30;94.10
3492;DHT22;1760;52.480;13.422;2023-06-22T12:22:34;31.60;90.50
3492;DHT22;1760;52.480;13.422;2023-06-22T12:25:03;32.10;94.20
3492;DHT22;1760;52.480;13.422;2023-06-22T12:34:53;31.40;95.60
3492;DHT22;1760;52.480;13.422;2023-06-22T12:37:22;31.60;92.70
3492;DHT22;1760;52.480;13.422;2023-06-22T12:39:49;31.70;77.30
3492;DHT22;1760;52.480;13.422;2023-06-22T12:44:44;31.20;81.50
3492;DHT22;1760;52.480;13.422;2023-06-22T12:47:11;31.50;92.80
3492;DHT22;1760;52.480;13.422;2023-06-22T12:49:38;31.10;94.10
3492;DHT22;1760;52.480;13.422;2023-06-22T12:52:09;31.30;96.70
3492;DHT22;1760;52.480;13.422;2023-06-22T12:54:38;31.00;92.80
3492;DHT22;1760;52.480;13.422;2023-06-22T12:57:07;31.20;93.30
3492;DHT22;1760;52.480;13.422;2023-06-22T12:59:34;31.30;92.80
3492;DHT22;1760;52.480;13.422;2023-06-22T13:02:01;31.20;96.30
3492;DHT22;1760;52.480;13.422;2023-06-22T13:04:28;31.30;73.70
3492;DHT22;1760;52.480;13.422;2023-06-22T13:06:55;31.10;93.10
3492;DHT22;1760;52.480;13.422;2023-06-22T13:09:22;31.10;96.20
3492;DHT22;1760;52.480;13.422;2023-06-22T13:11:50;31.10;78.30
3492;DHT22;1760;52.480;13.422;2023-06-22T13:14:18;31.40;95.70
3492;DHT22;1760;52.480;13.422;2023-06-22T13:16:45;31.40;86.50
3492;DHT22;1760;52.480;13.422;2023-06-22T13:24:09;31.50;64.60
3492;DHT22;1760;52.480;13.422;2023-06-22T13:29:04;31.30;92.00
3492;DHT22;1760;52.480;13.422;2023-06-22T13:31:31;31.30;96.00
3492;DHT22;1760;52.480;13.422;2023-06-22T13:38:56;31.60;92.30
3492;DHT22;1760;52.480;13.422;2023-06-22T13:41:26;31.50;65.10
3492;DHT22;1760;52.480;13.422;2023-06-22T13:46:21;31.50;96.00
3492;DHT22;1760;52.480;13.422;2023-06-22T13:51:16;31.50;92.30
3492;DHT22;1760;52.480;13.422;2023-06-22T13:53:43;31.30;92.60
3492;DHT22;1760;52.480;13.422;2023-06-22T13:58:38;31.40;92.30
3492;DHT22;1760;52.480;13.422;2023-06-22T14:03:33;31.20;65.60
3492;DHT22;1760;52.480;13.422;2023-06-22T14:06:00;31.50;92.80
3492;DHT22;1760;52.480;13.422;2023-06-22T14:10:56;31.40;65.10
3492;DHT22;1760;52.480;13.422;2023-06-22T14:13:23;31.40;92.40
3492;DHT22;1760;52.480;13.422;2023-06-22T14:15:50;31.60;96.50
3492;DHT22;1760;52.480;13.422;2023-06-22T14:20:46;31.50;95.30
3492;DHT22;1760;52.480;13.422;2023-06-22T14:23:13;31.30;95.10
3492;DHT22;1760;52.480;13.422;2023-06-22T14:28:07;31.10;74.30
3492;DHT22;1760;52.480;13.422;2023-06-22T14:35:28;31.30;96.80
3492;DHT22;1760;52.480;13.422;2023-06-22T14:37:57;31.30;65.40
3492;DHT22;1760;52.480;13.422;2023-06-22T14:40:24;31.40;96.90
3492;DHT22;1760;52.480;13.422;2023-06-22T14:47:45;31.40;93.00
3492;DHT22;1760;52.480;13.422;2023-06-22T14:50:12;31.20;96.90
3492;DHT22;1760;52.480;13.422;2023-06-22T14:52:40;31.60;96.80
3492;DHT22;1760;52.480;13.422;2023-06-22T14:55:08;31.20;97.00
3492;DHT22;1760;52.480;13.422;2023-06-22T15:00:03;31.40;94.60
3492;DHT22;1760;52.480;13.422;2023-06-22T15:02:32;31.20;92.70
3492;DHT22;1760;52.480;13.422;2023-06-22T15:07:26;31.30;97.10
3492;DHT22;1760;52.480;13.422;2023-06-22T15:09:55;30.90;95.70
3492;DHT22;1760;52.480;13.422;2023-06-22T15:12:23;31.30;92.60
3492;DHT22;1760;52.480;13.422;2023-06-22T15:14:50;31.10;93.00
3492;DHT22;1760;52.480;13.422;2023-06-22T15:17:17;31.20;97.00
3492;DHT22;1760;52.480;13.422;2023-06-22T15:19:44;31.20;96.10
3492;DHT22;1760;52.480;13.422;2023-06-22T15:22:11;31.10;97.10
3492;DHT22;1760;52.480;13.422;2023-06-22T15:27:06;30.50;97.00
3492;DHT22;1760;52.480;13.422;2023-06-22T15:29:34;30.20;66.30
3492;DHT22;1760;52.480;13.422;2023-06-22T15:34:28;30.60;96.90
3492;DHT22;1760;52.480;13.422;2023-06-22T15:39:22;30.80;97.20
3492;DHT22;1760;52.480;13.422;2023-06-22T15:46:48;30.60;67.80
3492;DHT22;1760;52.480;13.422;2023-06-22T15:49:18;30.60;67.20
3492;DHT22;1760;52.480;13.422;2023-06-22T15:51:45;30.70;97.80
3492;DHT22;1760;52.480;13.422;2023-06-22T15:59:07;30.50;68.50
3492;DHT22;1760;52.480;13.422;2023-06-22T16:04:02;30.20;97.70
3492;DHT22;1760;52.480;13.422;2023-06-22T16:06:29;30.30;86.70
3492;DHT22;1760;52.480;13.422;2023-06-22T16:11:23;30.30;99.20
3492;DHT22;1760;52.480;13.422;2023-06-22T16:13:50;30.40;99.50
3492;DHT22;1760;52.480;13.422;2023-06-22T16:21:15;29.90;95.30
3492;DHT22;1760;52.480;13.422;2023-06-22T16:26:09;30.10;96.10
3492;DHT22;1760;52.480;13.422;2023-06-22T16:28:36;30.00;96.40
3492;DHT22;1760;52.480;13.422;2023-06-22T16:38:27;29.50;99.80
3492;DHT22;1760;52.480;13.422;2023-06-22T16:43:22;29.60;99.90
3492;DHT22;1760;52.480;13.422;2023-06-22T16:50:43;28.90;99.70
3492;DHT22;1760;52.480;13.422;2023-06-22T16:53:11;28.60;99.90
3492;DHT22;1760;52.480;13.422;2023-06-22T16:55:40;28.90;77.60
3492;DHT22;1760;52.480;13.422;2023-06-22T16:58:09;28.60;98.10
3492;DHT22;1760;52.480;13.422;2023-06-22T17:00:38;28.70;99.90
3492;DHT22;1760;52.480;13.422;2023-06-22T17:03:08;28.70;98.50
3492;DHT22;1760;52.480;13.422;2023-06-22T17:05:39;28.70;99.90
3492;DHT22;1760;52.480;13.422;2023-06-22T17:08:08;28.60;78.50
3492;DHT22;1760;52.480;13.422;2023-06-22T17:10:40;28.70;78.40
3492;DHT22;1760;52.480;13.422;2023-06-22T17:13:08;28.60;99.90
3492;DHT22;1760;52.480;13.422;2023-06-22T17:15:35;28.60;79.20
3492;DHT22;1760;52.480;13.422;2023-06-22T17:18:04;28.60;99.90
3492;DHT22;1760;52.480;13.422;2023-06-22T17:20:31;28.50;99.90
3492;DHT22;1760;52.480;13.422;2023-06-22T17:22:58;28.60;99.50
3492;DHT22;1760;52.480;13.422;2023-06-22T17:25:27;28.30;99.90
3492;DHT22;1760;52.480;13.422;2023-06-22T17:28:00;28.40;93.90
3492;DHT22;1760;52.480;13.422;2023-06-22T17:30:27;29.00;99.90
3492;DHT22;1760;52.480;13.422;2023-06-22T17:32:55;28.30;99.90
3492;DHT22;1760;52.480;13.422;2023-06-22T17:35:22;28.30;99.90
3492;DHT22;1760;52.480;13.422;2023-06-22T17:37:51;28.10;99.90
3492;DHT22;1760;52.480;13.422;2023-06-22T17:40:20;28.20;86.60
3492;DHT22;1760;52.480;13.422;2023-06-22T17:42:49;28.20;95.00
3492;DHT22;1760;52.480;13.422;2023-06-22T17:45:19;27.90;99.90
3492;DHT22;1760;52.480;13.422;2023-06-22T17:47:47;28.10;99.90
3492;DHT22;1760;52.480;13.422;2023-06-22T17:50:15;28.10;99.90
3492;DHT22;1760;52.480;13.422;2023-06-22T17:52:47;27.80;99.90
3492;DHT22;1760;52.480;13.422;2023-06-22T17:55:15;28.30;99.90
3492;DHT22;1760;52.480;13.422;2023-06-22T18:00:15;27.70;99.90
3492;DHT22;1760;52.480;13.422;2023-06-22T18:02:43;27.50;99.90
3492;DHT22;1760;52.480;13.422;2023-06-22T18:05:10;27.40;99.90
3492;DHT22;1760;52.480;13.422;2023-06-22T18:07:37;27.60;99.90
3492;DHT22;1760;52.480;13.422;2023-06-22T18:10:06;27.70;99.90
3492;DHT22;1760;52.480;13.422;2023-06-22T18:12:34;27.60;88.10
3492;DHT22;1760;52.480;13.422;2023-06-22T18:15:02;27.20;99.90
3492;DHT22;1760;52.480;13.422;2023-06-22T18:19:58;27.20;99.90
3492;DHT22;1760;52.480;13.422;2023-06-22T18:24:54;27.40;99.90
3492;DHT22;1760;52.480;13.422;2023-06-22T18:27:22;27.40;99.90
3492;DHT22;1760;52.480;13.422;2023-06-22T18:29:50;27.20;99.90
3492;DHT22;1760;52.480;13.422;2023-06-22T18:32:20;27.00;99.90
3492;DHT22;1760;52.480;13.422;2023-06-22T18:34:47;27.10;90.70
3492;DHT22;1760;52.480;13.422;2023-06-22T18:37:19;26.90;99.90
3492;DHT22;1760;52.480;13.422;2023-06-22T18:39:50;27.10;90.70
3492;DHT22;1760;52.480;13.422;2023-06-22T18:42:18;27.10;99.90
3492;DHT22;1760;52.480;13.422;2023-06-22T18:44:51;27.10;90.80
3492;DHT22;1760;52.480;13.422;2023-06-22T18:47:25;26.60;90.80
3492;DHT22;1760;52.480;13.422;2023-06-22T18:49:53;26.70;99.90
3492;DHT22;1760;52.480;13.422;2023-06-22T18:52:25;26.90;99.90
3492;DHT22;1760;52.480;13.422;2023-06-22T18:54:52;26.70;99.90
3492;DHT22;1760;52.480;13.422;2023-06-22T18:57:23;26.90;99.90
3492;DHT22;1760;52.480;13.422;2023-06-22T18:59:51;26.70;91.50
3492;DHT22;1760;52.480;13.422;2023-06-22T19:02:39;26.50;99.90
3492;DHT22;1760;52.480;13.422;2023-06-22T19:05:07;26.50;99.90
3492;DHT22;1760;52.480;13.422;2023-06-22T19:07:57;26.60;99.90
3492;DHT22;1760;52.480;13.422;2023-06-22T19:10:25;26.40;99.90
3492;DHT22;1760;52.480;13.422;2023-06-22T19:12:53;26.30;99.90
3492;DHT22;1760;52.480;13.422;2023-06-22T19:15:20;26.40;99.90
3492;DHT22;1760;52.480;13.422;2023-06-22T19:17:49;26.40;99.90
3492;DHT22;1760;52.480;13.422;2023-06-22T19:20:18;26.70;99.90
3492;DHT22;1760;52.480;13.422;2023-06-22T19:22:49;26.20;99.90
3492;DHT22;1760;52.480;13.422;2023-06-22T19:25:21;26.20;99.90
3492;DHT22;1760;52.480;13.422;2023-06-22T19:27:50;26.30;99.90
3492;DHT22;1760;52.480;13.422;2023-06-22T19:30:24;26.40;93.20
3492;DHT22;1760;52.480;13.422;2023-06-22T19:32:55;26.30;99.90
3492;DHT22;1760;52.480;13.422;2023-06-22T19:35:22;26.70;99.90
3492;DHT22;1760;52.480;13.422;2023-06-22T19:37:49;26.10;99.90
3492;DHT22;1760;52.480;13.422;2023-06-22T19:40:16;26.10;99.90
3492;DHT22;1760;52.480;13.422;2023-06-22T19:42:45;26.10;99.90
3492;DHT22;1760;52.480;13.422;2023-06-22T19:45:16;26.10;99.90
3492;DHT22;1760;52.480;13.422;2023-06-22T19:47:43;26.30;99.90
3492;DHT22;1760;52.480;13.422;2023-06-22T19:52:46;26.10;99.90
3492;DHT22;1760;52.480;13.422;2023-06-22T19:57:41;26.30;99.90
3492;DHT22;1760;52.480;13.422;2023-06-22T20:00:20;25.90;93.90
3492;DHT22;1760;52.480;13.422;2023-06-22T20:02:50;25.80;99.90
3492;DHT22;1760;52.480;13.422;2023-06-22T20:05:20;25.80;99.90
3492;DHT22;1760;52.480;13.422;2023-06-22T20:10:17;25.80;95.80
3492;DHT22;1760;52.480;13.422;2023-06-22T20:12:48;25.80;99.90
3492;DHT22;1760;52.480;13.422;2023-06-22T20:15:23;25.70;99.90
3492;DHT22;1760;52.480;13.422;2023-06-22T20:18:00;25.90;99.90
3492;DHT22;1760;52.480;13.422;2023-06-22T20:20:29;25.80;99.90
3492;DHT22;1760;52.480;13.422;2023-06-22T20:22:59;25.70;99.90
3492;DHT22;1760;52.480;13.422;2023-06-22T20:25:30;25.60;99.90
3492;DHT22;1760;52.480;13.422;2023-06-22T20:28:04;25.50;99.90
3492;DHT22;1760;52.480;13.422;2023-06-22T20:30:32;25.60;99.90
3492;DHT22;1760;52.480;13.422;2023-06-22T20:33:01;25.70;99.90
3492;DHT22;1760;52.480;13.422;2023-06-22T20:37:58;24.50;99.90
3492;DHT22;1760;52.480;13.422;2023-06-22T20:40:26;23.80;99.90
3492;DHT22;1760;52.480;13.422;2023-06-22T20:42:56;22.70;99.90
3492;DHT22;1760;52.480;13.422;2023-06-22T20:45:24;22.50;99.90
3492;DHT22;1760;52.480;13.422;2023-06-22T20:47:54;21.80;99.90
3492;DHT22;1760;52.480;13.422;2023-06-22T20:50:22;21.60;99.90
3492;DHT22;1760;52.480;13.422;2023-06-22T20:52:49;21.70;99.90
3492;DHT22;1760;52.480;13.422;2023-06-22T20:55:19;21.80;99.90
3492;DHT22;1760;52.480;13.422;2023-06-22T20:57:46;21.70;99.90
3492;DHT22;1760;52.480;13.422;2023-06-22T21:00:17;21.70;99.90
3492;DHT22;1760;52.480;13.422;2023-06-22T21:02:44;21.00;99.90
3492;DHT22;1760;52.480;13.422;2023-06-22T21:05:15;21.00;99.90
3492;DHT22;1760;52.480;13.422;2023-06-22T21:07:42;21.50;99.90